Time;durP1;ratioP1;P1;durP2;ratioP2;P2;SDS_P1;SDS_P2;PMS_P1;PMS_P2;Temp;Humidity;BMP_temperature;BMP_pressure;BME280_temperature;BME280_humidity;BME280_pressure;Samples;Min_cycle;Max_cycle;Signal;HPM_P1;HPM_P2
2022/07/24 00:01:47;;;;;;;;;15.00;13.50;;;;;24.81;48.32;99442.34;5047646;28;45401;-77
2022/07/24 00:04:12;;;;;;;;;15.25;15.25;;;;;24.74;48.05;99433.13;5053362;28;45530;-76
2022/07/24 00:06:38;;;;;;;;;16.25;16.00;;;;;24.68;48.40;99438.09;5047504;28;45531;-76
2022/07/24 00:09:05;;;;;;;;;16.00;14.50;;;;;24.62;47.96;99436.00;5048812;28;45536;-77
2022/07/24 00:11:30;;;;;;;;;18.00;15.75;;;;;24.53;47.83;99435.97;5052301;28;45412;-76
2022/07/24 00:13:56;;;;;;;;;15.75;13.00;;;;;24.45;48.14;99428.63;5043787;28;45393;-77
2022/07/24 00:16:21;;;;;;;;;19.00;13.75;;;;;24.39;48.19;99434.56;5043387;28;45550;-76
2022/07/24 00:18:47;;;;;;;;;13.00;13.00;;;;;24.32;48.41;99431.56;5054120;28;46253;-76
2022/07/24 00:21:12;;;;;;;;;15.25;13.75;;;;;24.25;48.65;99425.06;5045928;28;45381;-76
2022/07/24 00:23:38;;;;;;;;;16.50;14.25;;;;;24.21;48.49;99431.69;5051156;28;45447;-76
2022/07/24 00:26:03;;;;;;;;;15.50;13.00;;;;;24.16;48.95;99431.25;5049084;28;45550;-76
2022/07/24 00:28:29;;;;;;;;;15.50;14.75;;;;;24.12;49.23;99432.53;5046521;28;46067;-76
2022/07/24 00:30:54;;;;;;;;;15.50;15.50;;;;;24.06;49.45;99435.78;5037709;28;45643;-76
2022/07/24 00:33:20;;;;;;;;;16.25;14.00;;;;;24.02;49.20;99431.66;5043455;28;45314;-76
2022/07/24 00:35:45;;;;;;;;;17.00;16.00;;;;;23.95;49.44;99431.38;5044676;28;45415;-76
2022/07/24 00:38:11;;;;;;;;;13.33;12.00;;;;;23.90;49.66;99436.31;5049424;28;46277;-76
2022/07/24 00:40:36;;;;;;;;;14.50;14.00;;;;;23.85;49.12;99432.31;5049594;28;45481;-76
2022/07/24 00:43:03;;;;;;;;;15.75;15.50;;;;;23.83;49.61;99439.69;5046690;28;45848;-76
2022/07/24 00:45:29;;;;;;;;;15.00;15.00;;;;;23.79;49.61;99438.28;5044735;28;45440;-76
2022/07/24 00:47:55;;;;;;;;;17.25;14.25;;;;;23.73;49.89;99431.59;5038797;28;46217;-76
2022/07/24 00:50:20;;;;;;;;;15.25;14.00;;;;;23.70;49.51;99434.53;5053236;28;45581;-76
2022/07/24 00:52:46;;;;;;;;;17.50;16.00;;;;;23.67;49.61;99437.50;5049460;28;45389;-76
2022/07/24 00:55:12;;;;;;;;;16.50;15.00;;;;;23.61;49.90;99438.94;5053537;28;45867;-77
2022/07/24 00:57:37;;;;;;;;;16.00;16.00;;;;;23.60;49.94;99439.06;5057347;28;46374;-77
2022/07/24 01:00:06;;;;;;;;;20.50;17.00;;;;;23.57;50.05;99434.78;5049942;28;45428;-76
2022/07/24 01:02:31;;;;;;;;;16.00;14.50;;;;;23.55;49.56;99433.22;5052855;28;45361;-77
2022/07/24 01:04:57;;;;;;;;;19.00;15.50;;;;;23.53;50.35;99432.50;5040123;28;45452;-77
2022/07/24 01:07:22;;;;;;;;;18.00;16.25;;;;;23.50;50.24;99433.59;5047857;28;45419;-77
2022/07/24 01:09:48;;;;;;;;;15.25;14.50;;;;;23.50;50.31;99428.22;5055023;28;45408;-77
2022/07/24 01:12:14;;;;;;;;;16.50;13.75;;;;;23.52;49.81;99433.50;5057400;28;45402;-77
2022/07/24 01:14:39;;;;;;;;;14.25;14.00;;;;;23.52;50.36;99428.09;5049650;28;45393;-77
2022/07/24 01:17:05;;;;;;;;;12.25;10.50;;;;;23.50;50.07;99425.53;5055743;28;46947;-77
2022/07/24 01:19:30;;;;;;;;;17.00;15.00;;;;;23.50;50.47;99432.75;5056522;28;45442;-76
2022/07/24 01:21:56;;;;;;;;;13.50;13.50;;;;;23.49;50.48;99436.41;5056710;28;45357;-77
2022/07/24 01:24:22;;;;;;;;;17.00;17.00;;;;;23.47;50.60;99431.16;5056938;28;45531;-76
2022/07/24 01:26:48;;;;;;;;;17.50;17.00;;;;;23.47;50.60;99435.69;5050300;28;45455;-77
2022/07/24 01:29:14;;;;;;;;;16.00;16.00;;;;;23.45;50.36;99427.78;5055818;28;45293;-77
2022/07/24 01:31:40;;;;;;;;;16.50;16.00;;;;;23.46;50.64;99429.47;5054665;28;45314;-76
2022/07/24 01:34:05;;;;;;;;;14.00;14.00;;;;;23.49;50.14;99428.34;5056850;28;45506;-77
2022/07/24 01:36:31;;;;;;;;;14.50;14.50;;;;;23.51;49.89;99429.94;5049052;28;46472;-77
2022/07/24 01:38:57;;;;;;;;;17.50;15.00;;;;;23.54;50.24;99426.13;5055554;28;45546;-77
2022/07/24 01:41:23;;;;;;;;;13.75;13.75;;;;;23.55;49.50;99435.91;5052646;28;45349;-77
2022/07/24 01:43:48;;;;;;;;;13.25;13.00;;;;;23.56;49.64;99425.03;5057042;28;45491;-77
2022/07/24 01:46:14;;;;;;;;;16.50;15.75;;;;;23.56;49.54;99421.47;5048990;28;45520;-77
2022/07/24 01:48:43;;;;;;;;;16.75;13.00;;;;;23.52;49.12;99423.56;5049282;28;45429;-77
2022/07/24 01:51:09;;;;;;;;;14.50;14.25;;;;;23.51;49.09;99429.06;5052791;28;45450;-76
2022/07/24 01:53:35;;;;;;;;;12.00;11.50;;;;;23.48;49.17;99423.94;5047682;28;45401;-77
2022/07/24 01:56:01;;;;;;;;;17.00;16.50;;;;;23.49;49.26;99422.97;5049568;28;46154;-77
2022/07/24 01:58:27;;;;;;;;;18.25;16.00;;;;;23.45;49.43;99410.78;5054553;28;45412;-76
2022/07/24 02:00:52;;;;;;;;;15.25;15.25;;;;;23.47;49.68;99419.53;5049265;28;45431;-77
2022/07/24 02:03:18;;;;;;;;;13.00;13.00;;;;;23.45;49.17;99418.84;5054180;28;45475;-77
2022/07/24 02:05:44;;;;;;;;;12.75;11.75;;;;;23.46;49.73;99412.50;5051711;28;46652;-76
2022/07/24 02:08:09;;;;;;;;;16.00;15.00;;;;;23.46;49.56;99415.19;5053143;28;45796;-76
2022/07/24 02:10:35;;;;;;;;;15.25;14.00;;;;;23.45;49.35;99408.94;5055016;28;45488;-76
2022/07/24 02:13:00;;;;;;;;;16.25;15.25;;;;;23.46;49.47;99415.19;5056082;28;45471;-77
2022/07/24 02:15:26;;;;;;;;;14.00;13.75;;;;;23.44;49.47;99414.47;5051105;28;47453;-77
2022/07/24 02:17:55;;;;;;;;;17.50;15.50;;;;;23.40;49.37;99416.56;5052542;28;45895;-77
2022/07/24 02:20:21;;;;;;;;;15.75;14.75;;;;;23.38;49.96;99410.47;5041550;28;45258;-77
2022/07/24 02:22:47;;;;;;;;;14.50;13.25;;;;;23.35;50.11;99412.56;5046263;28;45410;-77
2022/07/24 02:25:12;;;;;;;;;16.50;15.25;;;;;23.32;49.95;99403.78;5052251;28;46355;-76
2022/07/24 02:27:38;;;;;;;;;14.50;14.25;;;;;23.31;50.14;99407.44;5046633;28;45476;-77
2022/07/24 02:30:05;;;;;;;;;12.00;12.00;;;;;23.29;49.63;99409.41;5052728;28;45325;-77
2022/07/24 02:32:30;;;;;;;;;15.00;13.00;;;;;23.30;50.08;99410.28;5038163;28;45258;-77
2022/07/24 02:34:56;;;;;;;;;18.00;16.00;;;;;23.29;50.20;99408.59;5053675;28;45485;-76
2022/07/24 02:37:21;;;;;;;;;14.50;14.00;;;;;23.28;50.72;99421.19;5050822;28;45401;-78
2022/07/24 02:39:47;;;;;;;;;16.25;14.00;;;;;23.28;50.38;99417.66;5053763;28;45395;-76
2022/07/24 02:42:12;;;;;;;;;17.75;15.00;;;;;23.28;50.42;99414.97;5051447;28;45573;-76
2022/07/24 02:44:37;;;;;;;;;18.75;17.00;;;;;23.26;50.89;99417.78;5050934;28;46578;-77
2022/07/24 02:47:03;;;;;;;;;18.50;15.75;;;;;23.21;51.04;99416.47;5058922;28;45365;-77
2022/07/24 02:49:28;;;;;;;;;15.00;15.00;;;;;23.13;51.36;99403.69;5055910;28;45419;-76
2022/07/24 02:51:54;;;;;;;;;16.00;14.50;;;;;23.08;51.41;99408.63;5051016;28;45364;-77
2022/07/24 02:54:19;;;;;;;;;17.00;13.00;;;;;23.06;51.85;99398.97;5045634;28;46227;-77
2022/07/24 02:56:44;;;;;;;;;18.00;17.00;;;;;23.03;51.95;99404.63;5053438;28;45322;-77
2022/07/24 02:59:10;;;;;;;;;16.75;16.25;;;;;22.99;52.17;99404.03;5046210;27;45534;-77
2022/07/24 03:01:35;;;;;;;;;19.25;17.50;;;;;22.99;52.23;99409.41;5045441;28;45478;-76
2022/07/24 03:04:01;;;;;;;;;15.75;15.25;;;;;22.98;51.86;99407.72;5055402;28;45452;-77
2022/07/24 03:06:26;;;;;;;;;16.50;16.25;;;;;22.98;52.65;99413.09;5052183;28;45536;-77
2022/07/24 03:08:51;;;;;;;;;13.50;13.50;;;;;22.95;52.47;99418.75;5055862;28;45456;-77
2022/07/24 03:11:17;;;;;;;;;16.75;16.00;;;;;22.89;52.96;99409.38;5048779;28;45610;-77
2022/07/24 03:13:42;;;;;;;;;18.25;18.25;;;;;22.85;53.02;99405.22;5048665;28;45499;-77
2022/07/24 03:16:08;;;;;;;;;16.75;16.50;;;;;22.79;53.42;99402.25;5046215;28;45582;-77
2022/07/24 03:18:33;;;;;;;;;15.00;13.75;;;;;22.76;53.12;99408.69;5054676;28;45558;-77
2022/07/24 03:20:59;;;;;;;;;16.00;16.00;;;;;22.72;53.06;99409.06;5048578;28;45479;-77
2022/07/24 03:23:24;;;;;;;;;16.50;16.25;;;;;22.71;53.13;99410.06;5050128;28;46247;-76
2022/07/24 03:25:50;;;;;;;;;11.50;11.50;;;;;22.68;53.37;99404.94;5041912;28;45514;-76
2022/07/24 03:28:15;;;;;;;;;17.00;15.00;;;;;22.70;53.49;99411.91;5049424;28;45597;-77
2022/07/24 03:30:41;;;;;;;;;16.75;15.50;;;;;22.69;52.81;99403.97;5044606;28;45425;-76
2022/07/24 03:33:06;;;;;;;;;16.25;15.50;;;;;22.69;52.66;99410.19;5046758;28;45592;-76
2022/07/24 03:35:31;;;;;;;;;13.75;11.50;;;;;22.70;52.94;99405.66;5049805;28;45448;-77
2022/07/24 03:37:57;;;;;;;;;16.25;15.50;;;;;22.70;53.56;99408.34;5047492;28;45366;-77
2022/07/24 03:40:23;;;;;;;;;17.75;17.50;;;;;22.70;53.99;99411.91;5052293;28;45408;-77
2022/07/24 03:42:48;;;;;;;;;20.00;17.75;;;;;22.70;54.23;99405.66;5054260;28;45654;-77
2022/07/24 03:45:14;;;;;;;;;16.25;15.75;;;;;22.72;53.85;99406.38;5052844;28;46116;-76
2022/07/24 03:47:39;;;;;;;;;16.25;14.50;;;;;22.73;53.32;99408.09;5043812;28;45428;-76
2022/07/24 03:50:05;;;;;;;;;18.75;16.75;;;;;22.73;53.13;99411.63;5053015;28;45612;-77
2022/07/24 03:52:30;;;;;;;;;17.00;16.00;;;;;22.75;53.14;99409.69;5046751;28;48249;-76
2022/07/24 03:54:58;;;;;;;;;17.25;17.25;;;;;22.76;53.29;99416.75;5053011;28;45581;-77
2022/07/24 03:57:23;;;;;;;;;19.75;17.00;;;;;22.77;53.36;99415.81;5051944;28;45503;-77
2022/07/24 03:59:49;;;;;;;;;17.00;15.75;;;;;22.83;53.53;99425.16;5053073;28;45527;-77
2022/07/24 04:02:14;;;;;;;;;16.00;16.00;;;;;22.82;53.48;99431.53;5052259;28;46095;-77
2022/07/24 04:04:40;;;;;;;;;20.75;19.00;;;;;22.79;53.80;99427.25;5039420;28;45531;-77
2022/07/24 04:07:05;;;;;;;;;17.75;15.00;;;;;22.76;53.84;99432.88;5045772;28;45352;-77
2022/07/24 04:09:31;;;;;;;;;19.25;17.75;;;;;22.73;53.45;99432.28;5040804;28;45580;-77
2022/07/24 04:11:56;;;;;;;;;19.25;18.75;;;;;22.72;53.28;99425.22;5049252;28;46065;-76
2022/07/24 04:14:22;;;;;;;;;19.25;19.00;;;;;22.74;53.47;99432.16;5042931;28;45484;-77
2022/07/24 04:16:47;;;;;;;;;19.50;17.50;;;;;22.77;53.51;99433.78;5046617;28;45425;-76
2022/07/24 04:19:13;;;;;;;;;19.50;19.50;;;;;22.80;54.88;99438.88;5049087;28;45405;-77
2022/07/24 04:21:40;;;;;;;;;18.25;17.50;;;;;22.80;54.75;99431.66;5044449;28;45494;-76
2022/07/24 04:24:05;;;;;;;;;19.00;18.00;;;;;22.78;54.25;99440.84;5050104;28;45425;-77
2022/07/24 04:26:31;;;;;;;;;24.50;21.00;;;;;22.75;54.36;99438.38;5052248;28;45422;-77
2022/07/24 04:28:56;;;;;;;;;21.75;19.50;;;;;22.69;54.31;99437.06;5053930;28;45454;-77
2022/07/24 04:31:21;;;;;;;;;20.00;17.75;;;;;22.66;54.27;99431.94;5050237;28;46330;-76
2022/07/24 04:33:47;;;;;;;;;15.25;15.25;;;;;22.67;54.59;99438.19;5053685;28;45371;-76
2022/07/24 04:36:12;;;;;;;;;20.00;17.25;;;;;22.67;54.38;99430.97;5054133;28;45373;-77
2022/07/24 04:38:37;;;;;;;;;16.50;16.50;;;;;22.67;54.60;99447.09;5040960;28;45467;-77
2022/07/24 04:41:04;;;;;;;;;16.25;16.25;;;;;22.67;55.01;99432.81;5046627;28;45842;-77
2022/07/24 04:43:30;;;;;;;;;20.25;18.00;;;;;22.70;54.76;99444.16;5039319;28;45371;-76
2022/07/24 04:45:55;;;;;;;;;19.75;18.00;;;;;22.74;54.20;99452.81;5050548;28;45842;-77
2022/07/24 04:48:21;;;;;;;;;20.00;18.00;;;;;22.75;54.09;99447.31;5053847;28;45480;-77
2022/07/24 04:50:46;;;;;;;;;18.75;18.00;;;;;22.79;54.32;99445.25;5049834;28;45365;-77
2022/07/24 04:53:12;;;;;;;;;17.75;17.00;;;;;22.79;53.95;99454.13;5046238;28;45404;-77
2022/07/24 04:55:37;;;;;;;;;18.50;15.75;;;;;22.80;53.78;99445.09;5053118;28;45487;-77
2022/07/24 04:58:03;;;;;;;;;19.00;17.75;;;;;22.80;54.51;99445.09;5053527;28;45421;-77
2022/07/24 05:00:29;;;;;;;;;19.25;18.25;;;;;22.81;55.07;99449.50;5049161;28;46232;-77
2022/07/24 05:02:54;;;;;;;;;19.25;18.75;;;;;22.76;54.79;99449.03;5041930;28;45384;-77
2022/07/24 05:05:19;;;;;;;;;21.00;19.50;;;;;22.75;54.15;99452.69;5049905;28;45589;-77
2022/07/24 05:07:45;;;;;;;;;21.50;18.50;;;;;22.75;54.44;99443.78;5053710;28;45366;-77
2022/07/24 05:10:10;;;;;;;;;17.75;17.75;;;;;22.78;54.59;99457.00;5051314;28;45401;-77
2022/07/24 05:12:36;;;;;;;;;23.25;18.50;;;;;22.79;54.75;99445.25;5050014;28;45438;-77
2022/07/24 05:15:03;;;;;;;;;18.00;18.00;;;;;22.80;54.77;99441.56;5050426;28;45474;-78
2022/07/24 05:17:29;;;;;;;;;18.00;17.25;;;;;22.81;55.50;99452.19;5048270;28;45664;-77
2022/07/24 05:19:54;;;;;;;;;19.75;17.75;;;;;22.84;55.22;99457.31;5050720;28;46591;-77
2022/07/24 05:22:20;;;;;;;;;20.25;19.00;;;;;22.85;54.97;99452.78;5047545;28;45431;-78
2022/07/24 05:24:45;;;;;;;;;25.50;21.00;;;;;22.87;55.27;99454.34;5051287;28;45476;-77
2022/07/24 05:27:11;;;;;;;;;22.50;20.75;;;;;22.92;55.31;99453.97;5043577;28;45535;-77
2022/07/24 05:29:36;;;;;;;;;21.00;19.50;;;;;22.98;55.76;99446.22;5045226;28;45499;-77
2022/07/24 05:32:02;;;;;;;;;24.25;24.25;;;;;23.07;55.84;99454.47;5046583;28;45381;-77
2022/07/24 05:34:27;;;;;;;;;24.75;22.50;;;;;23.14;55.65;99466.41;5048873;28;45581;-78
2022/07/24 05:36:52;;;;;;;;;22.67;22.00;;;;;23.19;55.76;99461.47;5053247;28;45423;-78
2022/07/24 05:39:18;;;;;;;;;23.75;22.75;;;;;23.25;55.89;99459.13;5055496;28;45496;-77
2022/07/24 05:41:43;;;;;;;;;23.75;21.75;;;;;23.30;55.79;99462.25;5050933;28;45393;-77
2022/07/24 05:44:09;;;;;;;;;24.00;22.50;;;;;23.39;55.67;99451.69;5044963;28;45706;-77
2022/07/24 05:46:34;;;;;;;;;23.75;20.50;;;;;23.46;55.43;99448.28;5056225;28;45403;-78
2022/07/24 05:48:59;;;;;;;;;26.50;25.75;;;;;23.53;55.31;99445.97;5053004;28;46219;-77
2022/07/24 05:51:25;;;;;;;;;21.50;20.00;;;;;23.60;55.36;99444.44;5048930;28;45558;-77
2022/07/24 05:53:51;;;;;;;;;26.25;22.50;;;;;23.66;55.63;99450.13;5052067;28;45497;-77
2022/07/24 05:56:16;;;;;;;;;21.50;20.50;;;;;23.73;55.61;99438.81;5053984;28;45436;-77
2022/07/24 05:58:41;;;;;;;;;20.00;20.00;;;;;23.81;55.91;99441.66;5051779;28;45884;-77
2022/07/24 06:01:07;;;;;;;;;26.25;24.75;;;;;23.87;55.64;99447.34;5053568;28;45349;-78
2022/07/24 06:03:32;;;;;;;;;25.75;21.25;;;;;23.87;55.08;99439.28;5056045;28;45386;-77
2022/07/24 06:05:58;;;;;;;;;24.25;21.75;;;;;23.90;54.86;99433.63;5055535;28;45462;-78
2022/07/24 06:08:23;;;;;;;;;20.50;20.50;;;;;23.92;55.08;99433.47;5053755;28;46161;-78
2022/07/24 06:10:48;;;;;;;;;24.50;23.25;;;;;23.95;55.31;99439.47;5041607;28;45598;-78
2022/07/24 06:13:14;;;;;;;;;23.25;20.75;;;;;24.00;55.12;99430.94;5044846;28;45919;-79
2022/07/24 06:15:39;;;;;;;;;25.75;21.25;;;;;24.08;55.23;99439.19;5048258;28;45597;-78
2022/07/24 06:18:04;;;;;;;;;24.50;20.75;;;;;24.17;54.75;99438.34;5051111;28;45488;-78
2022/07/24 06:20:30;;;;;;;;;24.50;24.50;;;;;24.22;54.64;99428.00;5055588;28;45522;-77
2022/07/24 06:22:55;;;;;;;;;20.50;20.00;;;;;24.27;54.63;99433.84;5054421;28;45621;-79
2022/07/24 06:25:21;;;;;;;;;19.75;19.25;;;;;24.37;54.24;99436.53;5052197;28;45439;-60
2022/07/24 06:27:49;;;;;;;;;19.50;19.25;;;;;24.46;54.12;99435.72;5051886;28;46112;-60
2022/07/24 06:30:32;;;;;;;;;24.00;22.50;;;;;24.52;54.12;99432.44;5053367;28;45375;-60
2022/07/24 06:32:58;;;;;;;;;23.75;22.00;;;;;24.57;53.41;99427.47;5050777;28;45409;-60
2022/07/24 06:35:26;;;;;;;;;22.67;22.00;;;;;24.60;53.40;99429.88;5051541;28;45441;-60
2022/07/24 06:37:52;;;;;;;;;24.00;23.00;;;;;24.65;53.77;99427.59;5049058;28;45821;-60
2022/07/24 06:40:18;;;;;;;;;25.25;24.75;;;;;24.70;53.58;99422.63;5052410;28;45393;-60
2022/07/24 06:42:46;;;;;;;;;22.00;22.00;;;;;24.77;53.11;99430.16;5049544;28;45308;-60
2022/07/24 06:45:12;;;;;;;;;19.75;19.75;;;;;24.81;52.77;99423.47;5051995;28;45438;-59
2022/07/24 06:47:37;;;;;;;;;25.25;20.50;;;;;24.84;52.79;99420.47;5049913;28;45418;-59
2022/07/24 06:50:03;;;;;;;;;20.75;20.25;;;;;24.88;52.51;99430.00;5053872;28;45313;-59
2022/07/24 06:52:29;;;;;;;;;22.25;19.00;;;;;24.93;52.36;99433.13;5051960;28;45420;-59
2022/07/24 06:54:54;;;;;;;;;24.00;23.00;;;;;24.95;52.06;99428.47;5053038;28;45460;-60
2022/07/24 06:57:20;;;;;;;;;21.50;21.00;;;;;24.96;51.93;99422.91;5050118;28;45593;-59
2022/07/24 06:59:45;;;;;;;;;25.00;22.75;;;;;25.00;52.40;99429.69;5053970;28;45496;-61
2022/07/24 07:02:12;;;;;;;;;22.50;21.25;;;;;25.05;52.10;99423.88;5047050;28;45535;-61
2022/07/24 07:04:38;;;;;;;;;24.00;21.75;;;;;25.07;52.09;99421.88;5054331;28;45684;-60
2022/07/24 07:07:04;;;;;;;;;24.00;21.00;;;;;25.07;52.00;99421.03;5048660;28;46426;-60
2022/07/24 07:09:29;;;;;;;;;22.75;21.50;;;;;25.10;51.44;99424.31;5051526;27;45447;-60
2022/07/24 07:11:55;;;;;;;;;21.25;20.75;;;;;25.14;51.95;99427.53;5045935;28;45407;-60
2022/07/24 07:14:21;;;;;;;;;20.25;20.00;;;;;25.18;52.06;99419.00;5054445;28;45373;-60
2022/07/24 07:16:46;;;;;;;;;19.50;19.50;;;;;25.23;51.75;99416.72;5053258;28;46121;-61
2022/07/24 07:19:12;;;;;;;;;24.00;22.75;;;;;25.26;51.75;99415.59;5054919;28;45467;-60
2022/07/24 07:21:37;;;;;;;;;20.75;20.00;;;;;25.29;51.40;99412.59;5048944;28;45704;-59
2022/07/24 07:24:04;;;;;;;;;21.50;20.25;;;;;25.32;51.81;99407.72;5052923;28;45483;-60
2022/07/24 07:26:29;;;;;;;;;21.50;21.25;;;;;25.34;51.28;99408.44;5046575;28;47565;-62
2022/07/24 07:28:55;;;;;;;;;27.00;23.00;;;;;25.35;51.24;99410.13;5051905;28;45414;-61
2022/07/24 07:31:21;;;;;;;;;24.00;23.00;;;;;25.40;51.27;99412.41;5050982;28;45570;-61
2022/07/24 07:33:47;;;;;;;;;23.75;22.00;;;;;25.46;51.23;99410.97;5049410;28;45604;-62
2022/07/24 07:36:13;;;;;;;;;26.50;24.00;;;;;25.49;50.96;99403.41;5045083;28;45424;-61
2022/07/24 07:38:39;;;;;;;;;23.50;20.00;;;;;25.56;51.15;99398.25;5048120;28;45439;-61
2022/07/24 07:41:06;;;;;;;;;24.75;23.50;;;;;25.63;50.98;99402.09;5047795;28;45496;-61
2022/07/24 07:43:31;;;;;;;;;19.25;18.00;;;;;25.66;50.72;99402.63;5045741;28;45407;-61
2022/07/24 07:45:57;;;;;;;;;26.00;25.33;;;;;25.74;50.64;99401.91;5049011;28;46154;-63
2022/07/24 07:48:22;;;;;;;;;25.50;20.25;;;;;25.82;50.88;99406.53;5049505;28;45387;-60
2022/07/24 07:50:47;;;;;;;;;23.50;21.50;;;;;25.89;50.41;99394.13;5051721;28;45441;-60
2022/07/24 07:53:13;;;;;;;;;22.25;21.75;;;;;25.94;50.02;99394.53;5053582;28;45554;-61
2022/07/24 07:55:38;;;;;;;;;22.00;20.75;;;;;25.97;49.46;99391.53;5050884;28;45818;-60
2022/07/24 07:58:05;;;;;;;;;20.00;18.00;;;;;26.01;49.67;99388.34;5051579;28;45541;-62
2022/07/24 08:00:31;;;;;;;;;23.00;22.25;;;;;26.04;49.55;99389.88;5050410;28;45305;-61
2022/07/24 08:02:56;;;;;;;;;23.50;21.50;;;;;26.07;49.51;99389.59;5048180;28;45448;-61
2022/07/24 08:05:22;;;;;;;;;20.00;19.75;;;;;26.11;49.49;99387.44;5049563;28;46379;-61
2022/07/24 08:07:47;;;;;;;;;20.75;20.75;;;;;26.16;49.50;99385.94;5053619;28;45384;-60
2022/07/24 08:10:12;;;;;;;;;27.00;24.25;;;;;26.20;49.58;99376.53;5052120;28;45420;-61
2022/07/24 08:12:38;;;;;;;;;24.25;22.00;;;;;26.28;49.42;99378.47;5053976;28;45448;-61
2022/07/24 08:15:05;;;;;;;;;23.25;20.25;;;;;26.32;49.01;99374.47;5050950;28;45505;-61
2022/07/24 08:17:30;;;;;;;;;26.75;22.00;;;;;26.36;49.32;99376.72;5044691;28;45376;-60
2022/07/24 08:19:55;;;;;;;;;21.50;21.50;;;;;26.41;49.36;99374.41;5051712;28;45435;-60
2022/07/24 08:22:21;;;;;;;;;21.75;21.00;;;;;26.46;48.91;99376.66;5046279;28;45525;-60
2022/07/24 08:24:46;;;;;;;;;21.25;20.50;;;;;26.51;49.21;99373.44;5042321;28;46490;-60
2022/07/24 08:27:12;;;;;;;;;23.75;20.25;;;;;26.57;49.06;99365.56;5049947;28;45454;-60
2022/07/24 08:29:37;;;;;;;;;21.75;19.25;;;;;26.63;48.67;99367.66;5053981;28;45709;-60
2022/07/24 08:32:03;;;;;;;;;21.00;20.75;;;;;26.71;48.64;99367.72;5049271;28;45501;-61
2022/07/24 08:34:28;;;;;;;;;22.00;22.00;;;;;26.75;48.63;99366.38;5052315;28;45969;-60
2022/07/24 08:36:53;;;;;;;;;22.25;20.50;;;;;26.82;48.49;99366.59;5048951;28;45426;-60
2022/07/24 08:39:19;;;;;;;;;22.67;21.33;;;;;26.89;48.29;99364.09;5050120;28;45611;-60
2022/07/24 08:41:44;;;;;;;;;21.25;21.25;;;;;26.95;48.12;99364.38;5050391;28;45381;-60
2022/07/24 08:44:10;;;;;;;;;20.50;19.00;;;;;27.02;47.68;99360.00;5045239;28;45543;-60
2022/07/24 08:46:37;;;;;;;;;20.75;20.75;;;;;27.11;47.70;99350.06;5048033;28;45388;-60
2022/07/24 08:49:13;;;;;;;;;20.00;18.25;;;;;27.19;47.34;99349.25;5053174;28;45435;-60
2022/07/24 08:51:40;;;;;;;;;20.00;20.00;;;;;27.26;47.44;99348.44;5048505;28;45736;-60
2022/07/24 08:54:06;;;;;;;;;22.75;22.50;;;;;27.33;47.18;99345.94;5052758;28;46156;-60
2022/07/24 08:56:36;;;;;;;;;22.50;21.75;;;;;27.39;47.11;99345.28;5046439;28;45490;-60
2022/07/24 08:59:02;;;;;;;;;23.00;21.00;;;;;27.43;46.89;99342.09;5052440;28;45404;-61
2022/07/24 09:01:28;;;;;;;;;23.00;21.25;;;;;27.50;46.56;99338.72;5047673;28;45481;-61
2022/07/24 09:03:53;;;;;;;;;22.50;21.75;;;;;27.57;46.71;99339.78;5053250;28;47343;-60
2022/07/24 09:06:19;;;;;;;;;22.50;21.75;;;;;27.61;46.82;99331.19;5047213;28;45484;-60
2022/07/24 09:08:59;;;;;;;;;21.00;20.25;;;;;27.67;46.15;99332.38;5050640;28;45579;-60
2022/07/24 09:11:28;;;;;;;;;27.25;24.50;;;;;27.72;46.18;99332.72;5048775;28;45632;-60
2022/07/24 09:16:42;;;;;;;;;21.75;21.75;;;;;27.81;45.59;99320.91;5046958;28;45372;-60
2022/07/24 09:19:09;;;;;;;;;26.00;23.50;;;;;27.85;45.95;99330.38;5051397;28;45406;-60
2022/07/24 09:21:37;;;;;;;;;21.00;20.25;;;;;27.92;45.49;99327.88;5047996;28;45456;-60
2022/07/24 09:24:14;;;;;;;;;19.50;19.25;;;;;27.99;44.97;99326.16;5047293;28;46047;-60
2022/07/24 09:26:56;;;;;;;;;21.25;20.75;;;;;28.02;45.20;99321.25;5050743;28;45466;-60
2022/07/24 09:29:25;;;;;;;;;22.75;21.25;;;;;28.09;45.18;99310.59;5043688;28;45490;-60
2022/07/24 09:32:02;;;;;;;;;23.00;21.50;;;;;28.15;44.74;99315.38;5052546;28;45385;-60
2022/07/24 09:34:30;;;;;;;;;15.25;13.75;;;;;28.19;45.06;99311.31;5042600;28;45702;-60
2022/07/24 09:37:07;;;;;;;;;19.75;19.75;;;;;28.24;44.81;99308.09;5052027;28;45496;-60
2022/07/24 09:39:34;;;;;;;;;21.75;20.50;;;;;28.28;44.60;99304.88;5043419;28;45387;-61
2022/07/24 09:42:02;;;;;;;;;23.50;22.50;;;;;28.34;44.51;99298.75;5050598;28;45357;-60
2022/07/24 09:44:29;;;;;;;;;24.25;22.50;;;;;28.43;44.73;99296.91;5055331;28;46175;-60
2022/07/24 09:47:04;;;;;;;;;27.75;25.00;;;;;28.52;43.78;99295.88;5049676;28;45437;-60
2022/07/24 09:49:31;;;;;;;;;22.00;21.00;;;;;28.60;44.01;99289.59;5047985;28;45396;-60
2022/07/24 09:52:05;;;;;;;;;26.75;23.50;;;;;28.70;44.08;99282.09;5052435;28;45540;-60
2022/07/24 09:54:45;;;;;;;;;28.50;24.00;;;;;28.76;43.39;99281.41;5055724;28;46258;-60
2022/07/24 09:57:19;;;;;;;;;24.00;22.00;;;;;28.87;43.92;99278.34;5051116;28;45445;-60
2022/07/24 09:59:50;;;;;;;;;24.00;23.75;;;;;28.98;42.95;99277.16;5055674;28;45421;-60
2022/07/24 10:02:18;;;;;;;;;25.33;22.67;;;;;29.07;43.08;99273.38;5050891;28;45305;-60
2022/07/24 10:04:46;;;;;;;;;22.75;22.75;;;;;29.12;43.08;99271.84;5055021;28;46816;-62
2022/07/24 10:07:17;;;;;;;;;21.00;20.50;;;;;29.17;42.92;99268.56;5049847;28;45425;-61
2022/07/24 10:09:45;;;;;;;;;22.00;21.00;;;;;29.24;42.76;99268.72;5055650;28;45424;-60
2022/07/24 10:12:19;;;;;;;;;25.50;23.00;;;;;29.32;42.35;99269.53;5049948;28;45431;-60
2022/07/24 10:14:46;;;;;;;;;23.50;23.00;;;;;29.39;42.11;99259.66;5053887;28;45381;-61
2022/07/24 10:17:14;;;;;;;;;26.50;26.50;;;;;29.49;42.05;99263.00;5046628;28;45374;-60
2022/07/24 10:19:47;;;;;;;;;25.75;23.00;;;;;29.59;41.58;99254.63;5056064;28;45424;-60
2022/07/24 10:22:18;;;;;;;;;25.25;22.25;;;;;29.71;41.34;99255.91;5044544;28;45408;-61
2022/07/24 10:24:54;;;;;;;;;22.50;21.00;;;;;29.81;41.73;99259.25;5048257;28;46098;-60
2022/07/24 10:27:30;;;;;;;;;23.33;22.00;;;;;29.91;41.65;99244.53;5051789;28;45546;-60
2022/07/24 10:29:59;;;;;;;;;20.25;19.00;;;;;29.98;41.13;99246.41;5049057;28;45301;-60
2022/07/24 10:32:26;;;;;;;;;25.67;24.67;;;;;30.06;41.36;99245.47;5049078;28;45464;-60
2022/07/24 10:35:12;;;;;;;;;21.50;21.00;;;;;30.14;40.79;99242.69;5047150;28;45440;-60
2022/07/24 10:37:38;;;;;;;;;22.00;20.75;;;;;30.20;41.16;99239.22;5046742;28;45617;-60
2022/07/24 10:40:03;;;;;;;;;21.00;19.75;;;;;30.25;41.32;99234.09;5046664;28;45350;-60
2022/07/24 10:42:29;;;;;;;;;19.75;19.00;;;;;30.31;40.62;99232.50;5052972;28;45557;-61
2022/07/24 10:45:17;;;;;;;;;23.25;22.50;;;;;30.39;40.17;99227.81;5053998;28;45792;-61
2022/07/24 10:47:44;;;;;;;;;23.67;23.67;;;;;30.43;39.86;99220.97;5050783;28;45419;-60
2022/07/24 10:50:09;;;;;;;;;25.33;24.00;;;;;30.41;39.71;99222.19;5053533;28;45380;-60
2022/07/24 10:52:41;;;;;;;;;23.00;23.00;;;;;30.40;39.48;99217.78;5054676;28;45198;-60
2022/07/24 10:55:38;;;;;;;;;22.50;20.50;;;;;30.39;39.93;99214.22;5052211;28;47486;-61
2022/07/24 10:58:16;;;;;;;;;21.00;21.00;;;;;30.38;39.25;99206.25;5042554;28;45521;-61
2022/07/24 11:00:47;;;;;;;;;24.25;21.00;;;;;30.33;39.67;99204.06;5050024;28;45301;-61
2022/07/24 11:03:26;;;;;;;;;24.00;22.75;;;;;30.34;39.96;99204.91;5053264;28;45427;-60
2022/07/24 11:06:09;;;;;;;;;24.00;20.33;;;;;30.37;38.25;99207.28;5048670;28;46109;-60
2022/07/24 11:08:44;;;;;;;;;24.67;23.67;;;;;30.36;39.15;99198.25;5049957;28;45347;-61
2022/07/24 11:11:19;;;;;;;;;19.75;19.75;;;;;30.36;38.40;99200.97;5049034;28;45417;-60
2022/07/24 11:13:49;;;;;;;;;26.33;24.33;;;;;30.36;38.44;99192.81;5042284;28;45560;-60
2022/07/24 11:16:15;;;;;;;;;20.00;19.00;;;;;30.39;39.20;99187.00;5043880;28;45756;-60
2022/07/24 11:18:49;;;;;;;;;21.75;20.50;;;;;30.45;38.38;99182.72;5051725;28;45490;-60